sensor_id;sensor_type;location;lat;lon;timestamp;P1;durP1;ratioP1;P2;durP2;ratioP2
31224;SDS011;17847;31.524;74.366;2023-03-14T00:01:40;13.80;;;7.20;;
31224;SDS011;17847;31.524;74.366;2023-03-14T00:04:31;14.43;;;6.47;;
31224;SDS011;17847;31.524;74.366;2023-03-14T00:07:07;10.60;;;6.90;;
31224;SDS011;17847;31.524;74.366;2023-03-14T00:10:08;18.40;;;7.80;;
31224;SDS011;17847;31.524;74.366;2023-03-14T00:12:52;16.60;;;7.30;;
31224;SDS011;17847;31.524;74.366;2023-03-14T00:15:40;13.80;;;7.10;;
31224;SDS011;17847;31.524;74.366;2023-03-14T00:18:16;15.02;;;8.15;;
31224;SDS011;17847;31.524;74.366;2023-03-14T00:21:12;13.15;;;7.32;;
31224;SDS011;17847;31.524;74.366;2023-03-14T00:23:54;15.43;;;8.07;;
31224;SDS011;17847;31.524;74.366;2023-03-14T00:26:43;13.23;;;7.90;;
31224;SDS011;17847;31.524;74.366;2023-03-14T00:29:22;14.02;;;7.97;;
31224;SDS011;17847;31.524;74.366;2023-03-14T00:32:17;13.13;;;8.10;;
31224;SDS011;17847;31.524;74.366;2023-03-14T00:35:01;13.63;;;7.53;;
31224;SDS011;17847;31.524;74.366;2023-03-14T00:37:51;14.32;;;8.35;;
31224;SDS011;17847;31.524;74.366;2023-03-14T00:40:33;15.15;;;7.90;;
31224;SDS011;17847;31.524;74.366;2023-03-14T00:43:22;15.90;;;9.33;;
31224;SDS011;17847;31.524;74.366;2023-03-14T00:46:05;24.50;;;11.20;;
31224;SDS011;17847;31.524;74.366;2023-03-14T00:48:54;25.00;;;13.03;;
31224;SDS011;17847;31.524;74.366;2023-03-14T00:51:30;35.30;;;16.73;;
31224;SDS011;17847;31.524;74.366;2023-03-14T00:54:26;29.42;;;15.70;;
31224;SDS011;17847;31.524;74.366;2023-03-14T00:57:08;31.33;;;18.70;;
31224;SDS011;17847;31.524;74.366;2023-03-14T00:59:56;35.40;;;18.48;;
31224;SDS011;17847;31.524;74.366;2023-03-14T01:02:41;42.95;;;21.20;;
31224;SDS011;17847;31.524;74.366;2023-03-14T01:05:30;41.28;;;22.13;;
31224;SDS011;17847;31.524;74.366;2023-03-14T01:08:14;45.97;;;25.25;;
31224;SDS011;17847;31.524;74.366;2023-03-14T01:11:10;50.08;;;26.67;;
31224;SDS011;17847;31.524;74.366;2023-03-14T01:13:57;55.45;;;28.35;;
31224;SDS011;17847;31.524;74.366;2023-03-14T01:16:53;50.72;;;28.33;;
31224;SDS011;17847;31.524;74.366;2023-03-14T01:19:35;55.38;;;27.05;;
31224;SDS011;17847;31.524;74.366;2023-03-14T01:22:26;49.67;;;27.05;;
31224;SDS011;17847;31.524;74.366;2023-03-14T01:25:09;57.78;;;27.63;;
31224;SDS011;17847;31.524;74.366;2023-03-14T01:28:01;53.08;;;26.33;;
31224;SDS011;17847;31.524;74.366;2023-03-14T01:30:43;54.67;;;26.77;;
31224;SDS011;17847;31.524;74.366;2023-03-14T01:33:32;51.03;;;26.13;;
31224;SDS011;17847;31.524;74.366;2023-03-14T01:36:15;51.63;;;26.20;;
31224;SDS011;17847;31.524;74.366;2023-03-14T01:39:06;50.47;;;25.92;;
31224;SDS011;17847;31.524;74.366;2023-03-14T01:41:48;52.88;;;25.85;;
31224;SDS011;17847;31.524;74.366;2023-03-14T01:44:48;55.27;;;23.23;;
31224;SDS011;17847;31.524;74.366;2023-03-14T01:47:41;42.65;;;20.58;;
31224;SDS011;17847;31.524;74.366;2023-03-14T01:50:30;44.42;;;20.65;;
31224;SDS011;17847;31.524;74.366;2023-03-14T01:53:13;47.08;;;21.42;;
31224;SDS011;17847;31.524;74.366;2023-03-14T01:56:03;48.65;;;20.20;;
31224;SDS011;17847;31.524;74.366;2023-03-14T01:58:48;58.13;;;21.10;;
31224;SDS011;17847;31.524;74.366;2023-03-14T02:01:46;54.58;;;21.50;;
31224;SDS011;17847;31.524;74.366;2023-03-14T02:04:25;41.83;;;22.48;;
31224;SDS011;17847;31.524;74.366;2023-03-14T02:07:39;48.80;;;23.73;;
31224;SDS011;17847;31.524;74.366;2023-03-14T02:10:28;47.88;;;24.15;;
31224;SDS011;17847;31.524;74.366;2023-03-14T02:13:47;51.92;;;25.50;;
31224;SDS011;17847;31.524;74.366;2023-03-14T02:16:49;52.83;;;26.20;;
31224;SDS011;17847;31.524;74.366;2023-03-14T02:22:57;51.45;;;25.40;;
31224;SDS011;17847;31.524;74.366;2023-03-14T02:29:10;48.85;;;24.52;;
31224;SDS011;17847;31.524;74.366;2023-03-14T02:32:07;50.28;;;26.05;;
31224;SDS011;17847;31.524;74.366;2023-03-14T02:34:52;55.50;;;24.90;;
31224;SDS011;17847;31.524;74.366;2023-03-14T02:37:47;57.25;;;26.30;;
31224;SDS011;17847;31.524;74.366;2023-03-14T02:40:35;53.17;;;26.60;;
31224;SDS011;17847;31.524;74.366;2023-03-14T02:43:31;48.55;;;24.92;;
31224;SDS011;17847;31.524;74.366;2023-03-14T02:46:16;56.30;;;23.48;;
31224;SDS011;17847;31.524;74.366;2023-03-14T02:49:12;48.28;;;23.73;;
31224;SDS011;17847;31.524;74.366;2023-03-14T02:51:56;50.92;;;23.88;;
31224;SDS011;17847;31.524;74.366;2023-03-14T02:54:45;40.50;;;21.27;;
31224;SDS011;17847;31.524;74.366;2023-03-14T02:57:22;45.30;;;21.23;;
31224;SDS011;17847;31.524;74.366;2023-03-14T03:00:19;44.13;;;21.25;;
31224;SDS011;17847;31.524;74.366;2023-03-14T03:03:03;48.83;;;20.42;;
31224;SDS011;17847;31.524;74.366;2023-03-14T03:05:55;39.53;;;21.13;;
31224;SDS011;17847;31.524;74.366;2023-03-14T03:11:26;48.30;;;21.17;;
31224;SDS011;17847;31.524;74.366;2023-03-14T03:14:15;43.95;;;22.92;;
31224;SDS011;17847;31.524;74.366;2023-03-14T03:17:07;42.97;;;20.27;;
31224;SDS011;17847;31.524;74.366;2023-03-14T03:19:56;41.28;;;19.02;;
31224;SDS011;17847;31.524;74.366;2023-03-14T03:22:52;34.65;;;17.10;;
31224;SDS011;17847;31.524;74.366;2023-03-14T03:25:37;29.80;;;15.68;;
31224;SDS011;17847;31.524;74.366;2023-03-14T03:28:26;27.58;;;13.23;;
31224;SDS011;17847;31.524;74.366;2023-03-14T03:31:11;24.90;;;13.00;;
31224;SDS011;17847;31.524;74.366;2023-03-14T03:33:59;24.13;;;12.38;;
31224;SDS011;17847;31.524;74.366;2023-03-14T03:36:43;28.15;;;12.48;;
31224;SDS011;17847;31.524;74.366;2023-03-14T03:39:33;28.95;;;12.43;;
31224;SDS011;17847;31.524;74.366;2023-03-14T03:42:16;24.45;;;13.27;;
31224;SDS011;17847;31.524;74.366;2023-03-14T03:45:04;17.88;;;11.07;;
31224;SDS011;17847;31.524;74.366;2023-03-14T03:47:53;22.92;;;12.90;;
31224;SDS011;17847;31.524;74.366;2023-03-14T03:50:46;27.27;;;12.48;;
31224;SDS011;17847;31.524;74.366;2023-03-14T03:53:29;25.65;;;13.65;;
31224;SDS011;17847;31.524;74.366;2023-03-14T03:56:24;22.23;;;13.98;;
31224;SDS011;17847;31.524;74.366;2023-03-14T03:59:07;19.25;;;13.75;;
31224;SDS011;17847;31.524;74.366;2023-03-14T04:01:55;29.52;;;14.10;;
31224;SDS011;17847;31.524;74.366;2023-03-14T04:04:38;27.35;;;15.48;;
31224;SDS011;17847;31.524;74.366;2023-03-14T04:07:26;26.75;;;14.32;;
31224;SDS011;17847;31.524;74.366;2023-03-14T04:10:09;23.20;;;12.55;;
31224;SDS011;17847;31.524;74.366;2023-03-14T04:13:14;23.92;;;12.90;;
31224;SDS011;17847;31.524;74.366;2023-03-14T04:15:57;25.67;;;13.15;;
31224;SDS011;17847;31.524;74.366;2023-03-14T04:18:45;23.65;;;13.68;;
31224;SDS011;17847;31.524;74.366;2023-03-14T04:21:36;20.25;;;11.57;;
31224;SDS011;17847;31.524;74.366;2023-03-14T04:24:24;26.10;;;12.80;;
31224;SDS011;17847;31.524;74.366;2023-03-14T04:27:13;32.58;;;12.52;;
31224;SDS011;17847;31.524;74.366;2023-03-14T04:29:56;28.00;;;12.88;;
31224;SDS011;17847;31.524;74.366;2023-03-14T04:32:57;17.60;;;11.60;;
31224;SDS011;17847;31.524;74.366;2023-03-14T04:35:37;23.40;;;12.70;;
31224;SDS011;17847;31.524;74.366;2023-03-14T04:38:32;20.98;;;11.43;;
31224;SDS011;17847;31.524;74.366;2023-03-14T04:41:19;22.63;;;11.98;;
31224;SDS011;17847;31.524;74.366;2023-03-14T04:44:08;24.10;;;11.00;;
31224;SDS011;17847;31.524;74.366;2023-03-14T04:46:52;30.48;;;10.57;;
31224;SDS011;17847;31.524;74.366;2023-03-14T04:49:43;19.10;;;10.23;;
31224;SDS011;17847;31.524;74.366;2023-03-14T04:52:27;16.90;;;9.98;;
31224;SDS011;17847;31.524;74.366;2023-03-14T04:55:17;21.55;;;10.43;;
31224;SDS011;17847;31.524;74.366;2023-03-14T04:58:00;19.23;;;10.93;;
31224;SDS011;17847;31.524;74.366;2023-03-14T05:00:49;19.08;;;11.13;;
31224;SDS011;17847;31.524;74.366;2023-03-14T05:03:44;25.95;;;12.02;;
31224;SDS011;17847;31.524;74.366;2023-03-14T05:07:14;14.40;;;10.48;;
31224;SDS011;17847;31.524;74.366;2023-03-14T05:10:10;22.83;;;11.75;;
31224;SDS011;17847;31.524;74.366;2023-03-14T05:13:23;17.88;;;10.52;;
31224;SDS011;17847;31.524;74.366;2023-03-14T05:16:35;27.20;;;12.30;;
31224;SDS011;17847;31.524;74.366;2023-03-14T05:19:35;41.17;;;11.80;;
31224;SDS011;17847;31.524;74.366;2023-03-14T05:22:49;32.50;;;11.57;;
31224;SDS011;17847;31.524;74.366;2023-03-14T05:26:09;29.88;;;11.45;;
31224;SDS011;17847;31.524;74.366;2023-03-14T05:29:12;22.50;;;11.43;;
31224;SDS011;17847;31.524;74.366;2023-03-14T05:32:23;26.48;;;12.07;;
31224;SDS011;17847;31.524;74.366;2023-03-14T05:35:38;20.67;;;12.32;;
31224;SDS011;17847;31.524;74.366;2023-03-14T05:38:49;27.17;;;12.13;;
31224;SDS011;17847;31.524;74.366;2023-03-14T05:41:59;29.95;;;12.23;;
31224;SDS011;17847;31.524;74.366;2023-03-14T05:45:18;21.90;;;12.32;;
31224;SDS011;17847;31.524;74.366;2023-03-14T05:48:24;28.25;;;13.25;;
31224;SDS011;17847;31.524;74.366;2023-03-14T05:51:28;25.52;;;13.05;;
31224;SDS011;17847;31.524;74.366;2023-03-14T05:54:39;35.40;;;15.07;;
31224;SDS011;17847;31.524;74.366;2023-03-14T05:57:52;32.67;;;17.52;;
31224;SDS011;17847;31.524;74.366;2023-03-14T06:00:55;45.05;;;24.35;;
31224;SDS011;17847;31.524;74.366;2023-03-14T06:04:16;29.65;;;15.73;;
31224;SDS011;17847;31.524;74.366;2023-03-14T06:06:59;43.45;;;24.52;;
31224;SDS011;17847;31.524;74.366;2023-03-14T06:09:48;39.75;;;22.88;;
31224;SDS011;17847;31.524;74.366;2023-03-14T06:12:31;49.83;;;23.48;;
31224;SDS011;17847;31.524;74.366;2023-03-14T06:15:20;49.15;;;31.13;;
31224;SDS011;17847;31.524;74.366;2023-03-14T06:18:03;51.25;;;30.48;;
31224;SDS011;17847;31.524;74.366;2023-03-14T06:20:55;64.53;;;35.00;;
31224;SDS011;17847;31.524;74.366;2023-03-14T06:23:51;55.17;;;30.60;;
31224;SDS011;17847;31.524;74.366;2023-03-14T06:26:39;78.82;;;42.55;;
31224;SDS011;17847;31.524;74.366;2023-03-14T06:29:29;87.60;;;46.03;;
31224;SDS011;17847;31.524;74.366;2023-03-14T06:32:12;42.22;;;27.80;;
31224;SDS011;17847;31.524;74.366;2023-03-14T06:35:05;90.30;;;50.53;;
31224;SDS011;17847;31.524;74.366;2023-03-14T06:37:43;61.10;;;38.97;;
31224;SDS011;17847;31.524;74.366;2023-03-14T06:40:39;90.03;;;46.70;;
31224;SDS011;17847;31.524;74.366;2023-03-14T06:43:31;82.03;;;47.65;;
31224;SDS011;17847;31.524;74.366;2023-03-14T06:46:21;81.20;;;48.78;;
31224;SDS011;17847;31.524;74.366;2023-03-14T06:49:03;63.47;;;36.60;;
31224;SDS011;17847;31.524;74.366;2023-03-14T06:51:56;65.32;;;35.55;;
31224;SDS011;17847;31.524;74.366;2023-03-14T06:54:38;52.20;;;31.67;;
31224;SDS011;17847;31.524;74.366;2023-03-14T06:57:28;46.65;;;29.45;;
31224;SDS011;17847;31.524;74.366;2023-03-14T07:00:12;54.65;;;30.20;;
31224;SDS011;17847;31.524;74.366;2023-03-14T07:03:08;49.30;;;30.42;;
31224;SDS011;17847;31.524;74.366;2023-03-14T07:05:48;56.88;;;32.00;;
31224;SDS011;17847;31.524;74.366;2023-03-14T07:08:44;44.80;;;23.20;;
31224;SDS011;17847;31.524;74.366;2023-03-14T07:11:27;40.30;;;24.20;;
31224;SDS011;17847;31.524;74.366;2023-03-14T07:14:17;66.25;;;35.55;;
31224;SDS011;17847;31.524;74.366;2023-03-14T07:16:59;51.83;;;29.92;;
31224;SDS011;17847;31.524;74.366;2023-03-14T07:19:49;42.67;;;24.48;;
31224;SDS011;17847;31.524;74.366;2023-03-14T07:22:48;39.92;;;22.50;;
31224;SDS011;17847;31.524;74.366;2023-03-14T07:25:39;40.30;;;22.30;;
31224;SDS011;17847;31.524;74.366;2023-03-14T07:28:37;30.08;;;18.55;;
31224;SDS011;17847;31.524;74.366;2023-03-14T07:31:21;28.38;;;13.13;;
31224;SDS011;17847;31.524;74.366;2023-03-14T07:34:10;19.40;;;7.25;;
31224;SDS011;17847;31.524;74.366;2023-03-14T07:36:54;21.23;;;8.43;;
31224;SDS011;17847;31.524;74.366;2023-03-14T07:39:42;22.60;;;7.88;;
31224;SDS011;17847;31.524;74.366;2023-03-14T07:42:28;18.60;;;9.60;;
31224;SDS011;17847;31.524;74.366;2023-03-14T07:45:23;21.95;;;9.45;;
31224;SDS011;17847;31.524;74.366;2023-03-14T07:48:15;19.08;;;10.38;;
31224;SDS011;17847;31.524;74.366;2023-03-14T07:51:05;20.50;;;9.88;;
31224;SDS011;17847;31.524;74.366;2023-03-14T07:53:48;29.30;;;12.43;;
31224;SDS011;17847;31.524;74.366;2023-03-14T07:56:36;26.33;;;13.05;;
31224;SDS011;17847;31.524;74.366;2023-03-14T07:59:19;23.65;;;13.57;;
31224;SDS011;17847;31.524;74.366;2023-03-14T08:02:09;30.05;;;14.18;;
31224;SDS011;17847;31.524;74.366;2023-03-14T08:04:56;27.73;;;14.93;;
31224;SDS011;17847;31.524;74.366;2023-03-14T08:07:44;19.23;;;12.45;;
31224;SDS011;17847;31.524;74.366;2023-03-14T08:10:27;26.00;;;12.23;;
31224;SDS011;17847;31.524;74.366;2023-03-14T08:13:15;24.00;;;12.27;;
31224;SDS011;17847;31.524;74.366;2023-03-14T08:15:58;22.50;;;11.20;;
31224;SDS011;17847;31.524;74.366;2023-03-14T08:18:46;16.40;;;9.15;;
31224;SDS011;17847;31.524;74.366;2023-03-14T08:21:35;21.60;;;9.70;;
31224;SDS011;17847;31.524;74.366;2023-03-14T08:24:30;25.02;;;10.23;;
31224;SDS011;17847;31.524;74.366;2023-03-14T08:27:15;21.27;;;10.27;;
31224;SDS011;17847;31.524;74.366;2023-03-14T08:30:12;16.75;;;8.60;;
31224;SDS011;17847;31.524;74.366;2023-03-14T08:32:59;24.83;;;10.48;;
31224;SDS011;17847;31.524;74.366;2023-03-14T08:35:55;15.05;;;9.00;;
31224;SDS011;17847;31.524;74.366;2023-03-14T08:38:39;15.68;;;8.68;;
31224;SDS011;17847;31.524;74.366;2023-03-14T08:41:27;12.65;;;8.90;;
31224;SDS011;17847;31.524;74.366;2023-03-14T08:44:10;13.60;;;8.55;;
31224;SDS011;17847;31.524;74.366;2023-03-14T08:46:59;15.98;;;9.43;;
31224;SDS011;17847;31.524;74.366;2023-03-14T08:49:42;14.70;;;9.07;;
31224;SDS011;17847;31.524;74.366;2023-03-14T08:52:30;15.55;;;9.32;;
31224;SDS011;17847;31.524;74.366;2023-03-14T08:55:13;22.13;;;8.85;;
31224;SDS011;17847;31.524;74.366;2023-03-14T08:58:08;9.93;;;6.28;;
31224;SDS011;17847;31.524;74.366;2023-03-14T09:00:50;9.57;;;7.10;;
31224;SDS011;17847;31.524;74.366;2023-03-14T09:06:23;11.27;;;8.45;;
31224;SDS011;17847;31.524;74.366;2023-03-14T09:09:11;18.38;;;9.38;;
31224;SDS011;17847;31.524;74.366;2023-03-14T09:11:48;19.90;;;9.63;;
31224;SDS011;17847;31.524;74.366;2023-03-14T09:14:43;22.85;;;11.80;;
31224;SDS011;17847;31.524;74.366;2023-03-14T09:17:19;18.67;;;11.07;;
31224;SDS011;17847;31.524;74.366;2023-03-14T09:20:14;25.60;;;11.98;;
31224;SDS011;17847;31.524;74.366;2023-03-14T09:23:10;18.00;;;11.23;;
31224;SDS011;17847;31.524;74.366;2023-03-14T09:25:57;20.38;;;10.77;;
31224;SDS011;17847;31.524;74.366;2023-03-14T09:28:46;23.48;;;10.60;;
31224;SDS011;17847;31.524;74.366;2023-03-14T09:31:31;28.20;;;11.13;;
31224;SDS011;17847;31.524;74.366;2023-03-14T09:34:19;14.65;;;8.60;;
31224;SDS011;17847;31.524;74.366;2023-03-14T09:37:02;18.02;;;7.88;;
31224;SDS011;17847;31.524;74.366;2023-03-14T09:42:33;13.50;;;8.00;;
31224;SDS011;17847;31.524;74.366;2023-03-14T09:45:36;17.83;;;7.68;;
31224;SDS011;17847;31.524;74.366;2023-03-14T09:48:34;12.52;;;7.70;;
31224;SDS011;17847;31.524;74.366;2023-03-14T09:51:18;13.05;;;7.57;;
31224;SDS011;17847;31.524;74.366;2023-03-14T09:54:14;13.27;;;8.93;;
31224;SDS011;17847;31.524;74.366;2023-03-14T09:57:21;17.08;;;8.73;;
31224;SDS011;17847;31.524;74.366;2023-03-14T10:00:21;14.52;;;7.65;;
31224;SDS011;17847;31.524;74.366;2023-03-14T10:03:22;18.30;;;8.40;;
31224;SDS011;17847;31.524;74.366;2023-03-14T10:06:19;17.55;;;8.65;;
31224;SDS011;17847;31.524;74.366;2023-03-14T10:08:56;14.77;;;8.15;;
31224;SDS011;17847;31.524;74.366;2023-03-14T10:11:56;20.65;;;8.70;;
31224;SDS011;17847;31.524;74.366;2023-03-14T10:14:52;12.82;;;8.75;;
31224;SDS011;17847;31.524;74.366;2023-03-14T10:17:42;14.77;;;8.40;;
31224;SDS011;17847;31.524;74.366;2023-03-14T10:20:35;14.60;;;8.02;;
31224;SDS011;17847;31.524;74.366;2023-03-14T10:23:29;13.75;;;8.90;;
31224;SDS011;17847;31.524;74.366;2023-03-14T10:26:15;20.98;;;8.60;;
31224;SDS011;17847;31.524;74.366;2023-03-14T10:29:10;14.82;;;10.07;;
31224;SDS011;17847;31.524;74.366;2023-03-14T10:31:57;12.90;;;9.25;;
31224;SDS011;17847;31.524;74.366;2023-03-14T10:38:00;20.38;;;9.48;;
31224;SDS011;17847;31.524;74.366;2023-03-14T10:40:50;17.45;;;9.77;;
31224;SDS011;17847;31.524;74.366;2023-03-14T10:43:41;13.13;;;9.27;;
31224;SDS011;17847;31.524;74.366;2023-03-14T10:46:37;16.73;;;9.38;;
31224;SDS011;17847;31.524;74.366;2023-03-14T10:49:26;17.08;;;8.38;;
31224;SDS011;17847;31.524;74.366;2023-03-14T10:55:20;10.63;;;7.32;;
31224;SDS011;17847;31.524;74.366;2023-03-14T10:58:21;13.60;;;6.80;;
31224;SDS011;17847;31.524;74.366;2023-03-14T11:01:22;12.40;;;7.55;;
31224;SDS011;17847;31.524;74.366;2023-03-14T11:04:45;16.35;;;7.97;;
31224;SDS011;17847;31.524;74.366;2023-03-14T11:07:38;13.40;;;8.20;;
31224;SDS011;17847;31.524;74.366;2023-03-14T11:10:37;17.60;;;8.73;;
31224;SDS011;17847;31.524;74.366;2023-03-14T11:19:19;16.00;;;9.43;;
31224;SDS011;17847;31.524;74.366;2023-03-14T11:22:28;13.45;;;7.80;;
31224;SDS011;17847;31.524;74.366;2023-03-14T11:31:28;11.27;;;8.00;;
31224;SDS011;17847;31.524;74.366;2023-03-14T11:34:27;19.48;;;9.00;;
31224;SDS011;17847;31.524;74.366;2023-03-14T11:40:44;17.23;;;9.23;;
31224;SDS011;17847;31.524;74.366;2023-03-14T11:43:28;18.92;;;11.07;;
31224;SDS011;17847;31.524;74.366;2023-03-14T11:46:37;16.27;;;11.15;;
31224;SDS011;17847;31.524;74.366;2023-03-14T11:58:01;21.45;;;12.23;;
31224;SDS011;17847;31.524;74.366;2023-03-14T12:00:55;19.23;;;11.80;;
31224;SDS011;17847;31.524;74.366;2023-03-14T12:09:46;17.95;;;11.38;;
31224;SDS011;17847;31.524;74.366;2023-03-14T12:12:31;15.75;;;10.82;;
31224;SDS011;17847;31.524;74.366;2023-03-14T12:18:12;20.92;;;12.50;;
31224;SDS011;17847;31.524;74.366;2023-03-14T12:21:11;20.83;;;12.30;;
31224;SDS011;17847;31.524;74.366;2023-03-14T12:23:56;30.27;;;12.57;;
31224;SDS011;17847;31.524;74.366;2023-03-14T12:26:53;19.27;;;12.55;;
31224;SDS011;17847;31.524;74.366;2023-03-14T12:35:45;30.58;;;14.30;;
31224;SDS011;17847;31.524;74.366;2023-03-14T12:41:38;18.88;;;11.70;;
31224;SDS011;17847;31.524;74.366;2023-03-14T12:50:24;27.13;;;13.35;;
31224;SDS011;17847;31.524;74.366;2023-03-14T12:56:28;28.42;;;14.13;;
31224;SDS011;17847;31.524;74.366;2023-03-14T12:59:38;31.90;;;13.38;;
31224;SDS011;17847;31.524;74.366;2023-03-14T13:02:37;25.48;;;11.65;;
31224;SDS011;17847;31.524;74.366;2023-03-14T13:05:30;20.65;;;11.50;;
31224;SDS011;17847;31.524;74.366;2023-03-14T13:08:12;24.02;;;12.32;;
31224;SDS011;17847;31.524;74.366;2023-03-14T13:11:01;23.77;;;12.00;;
31224;SDS011;17847;31.524;74.366;2023-03-14T13:13:48;23.80;;;11.75;;
31224;SDS011;17847;31.524;74.366;2023-03-14T13:16:43;22.00;;;11.00;;
31224;SDS011;17847;31.524;74.366;2023-03-14T13:19:26;23.08;;;11.32;;
31224;SDS011;17847;31.524;74.366;2023-03-14T13:22:26;20.88;;;10.77;;
31224;SDS011;17847;31.524;74.366;2023-03-14T13:25:06;20.70;;;10.55;;
31224;SDS011;17847;31.524;74.366;2023-03-14T13:30:41;35.03;;;11.75;;
31224;SDS011;17847;31.524;74.366;2023-03-14T13:33:39;16.30;;;10.82;;
31224;SDS011;17847;31.524;74.366;2023-03-14T13:36:22;29.90;;;11.65;;
31224;SDS011;17847;31.524;74.366;2023-03-14T13:39:16;31.17;;;11.55;;
31224;SDS011;17847;31.524;74.366;2023-03-14T13:41:54;19.70;;;11.20;;
31224;SDS011;17847;31.524;74.366;2023-03-14T13:44:53;27.10;;;11.52;;
31224;SDS011;17847;31.524;74.366;2023-03-14T13:47:37;21.33;;;10.75;;
31224;SDS011;17847;31.524;74.366;2023-03-14T13:50:28;15.27;;;10.55;;
31224;SDS011;17847;31.524;74.366;2023-03-14T13:53:03;24.20;;;10.50;;
31224;SDS011;17847;31.524;74.366;2023-03-14T13:56:01;22.02;;;11.18;;
31224;SDS011;17847;31.524;74.366;2023-03-14T13:58:44;16.60;;;10.20;;
31224;SDS011;17847;31.524;74.366;2023-03-14T14:01:34;20.38;;;11.02;;
31224;SDS011;17847;31.524;74.366;2023-03-14T14:04:21;19.17;;;11.77;;
31224;SDS011;17847;31.524;74.366;2023-03-14T14:07:19;21.73;;;11.73;;
31224;SDS011;17847;31.524;74.366;2023-03-14T14:09:54;25.30;;;13.15;;
31224;SDS011;17847;31.524;74.366;2023-03-14T14:12:59;26.38;;;12.60;;
31224;SDS011;17847;31.524;74.366;2023-03-14T14:15:39;21.77;;;11.00;;
31224;SDS011;17847;31.524;74.366;2023-03-14T14:18:38;36.70;;;15.90;;
31224;SDS011;17847;31.524;74.366;2023-03-14T14:21:14;25.55;;;15.50;;
31224;SDS011;17847;31.524;74.366;2023-03-14T14:24:13;38.00;;;18.98;;
31224;SDS011;17847;31.524;74.366;2023-03-14T14:27:39;26.98;;;15.27;;
31224;SDS011;17847;31.524;74.366;2023-03-14T14:33:25;30.83;;;14.73;;
31224;SDS011;17847;31.524;74.366;2023-03-14T14:36:32;27.48;;;14.15;;
31224;SDS011;17847;31.524;74.366;2023-03-14T14:39:19;30.80;;;15.63;;
31224;SDS011;17847;31.524;74.366;2023-03-14T14:42:15;39.90;;;19.15;;
31224;SDS011;17847;31.524;74.366;2023-03-14T14:45:09;41.15;;;17.20;;
31224;SDS011;17847;31.524;74.366;2023-03-14T14:51:00;29.02;;;14.38;;
31224;SDS011;17847;31.524;74.366;2023-03-14T14:53:45;18.42;;;11.88;;
31224;SDS011;17847;31.524;74.366;2023-03-14T14:56:35;24.38;;;13.32;;
31224;SDS011;17847;31.524;74.366;2023-03-14T14:59:20;31.23;;;14.05;;
31224;SDS011;17847;31.524;74.366;2023-03-14T15:02:30;30.27;;;14.60;;
31224;SDS011;17847;31.524;74.366;2023-03-14T15:05:20;34.33;;;15.50;;
31224;SDS011;17847;31.524;74.366;2023-03-14T15:08:14;28.50;;;14.00;;
31224;SDS011;17847;31.524;74.366;2023-03-14T15:10:49;37.78;;;15.15;;
31224;SDS011;17847;31.524;74.366;2023-03-14T15:13:45;27.65;;;14.27;;
31224;SDS011;17847;31.524;74.366;2023-03-14T15:16:28;31.10;;;15.10;;
31224;SDS011;17847;31.524;74.366;2023-03-14T15:19:23;24.45;;;13.70;;
31224;SDS011;17847;31.524;74.366;2023-03-14T15:22:00;29.63;;;14.55;;
31224;SDS011;17847;31.524;74.366;2023-03-14T15:24:59;36.83;;;15.88;;
31224;SDS011;17847;31.524;74.366;2023-03-14T15:30:59;29.00;;;14.80;;
31224;SDS011;17847;31.524;74.366;2023-03-14T15:33:49;35.25;;;15.55;;
31224;SDS011;17847;31.524;74.366;2023-03-14T15:36:32;28.13;;;14.70;;
31224;SDS011;17847;31.524;74.366;2023-03-14T15:39:23;31.75;;;14.90;;
31224;SDS011;17847;31.524;74.366;2023-03-14T15:42:04;29.38;;;15.75;;
31224;SDS011;17847;31.524;74.366;2023-03-14T15:44:54;35.40;;;16.13;;
31224;SDS011;17847;31.524;74.366;2023-03-14T15:47:49;34.92;;;15.93;;
31224;SDS011;17847;31.524;74.366;2023-03-14T15:50:31;37.90;;;16.10;;
31224;SDS011;17847;31.524;74.366;2023-03-14T15:53:20;42.70;;;16.58;;
31224;SDS011;17847;31.524;74.366;2023-03-14T15:56:05;37.15;;;16.90;;
31224;SDS011;17847;31.524;74.366;2023-03-14T15:58:59;37.20;;;15.30;;
31224;SDS011;17847;31.524;74.366;2023-03-14T16:01:41;35.88;;;15.57;;
31224;SDS011;17847;31.524;74.366;2023-03-14T16:04:30;28.05;;;15.38;;
31224;SDS011;17847;31.524;74.366;2023-03-14T16:07:12;31.90;;;14.85;;
31224;SDS011;17847;31.524;74.366;2023-03-14T16:10:01;33.70;;;15.60;;
31224;SDS011;17847;31.524;74.366;2023-03-14T16:12:44;32.92;;;16.05;;
31224;SDS011;17847;31.524;74.366;2023-03-14T16:15:33;30.27;;;16.13;;
31224;SDS011;17847;31.524;74.366;2023-03-14T16:18:15;36.90;;;18.73;;
31224;SDS011;17847;31.524;74.366;2023-03-14T16:21:08;35.55;;;15.48;;
31224;SDS011;17847;31.524;74.366;2023-03-14T16:23:54;42.70;;;19.13;;
31224;SDS011;17847;31.524;74.366;2023-03-14T16:26:43;43.67;;;21.33;;
31224;SDS011;17847;31.524;74.366;2023-03-14T16:29:26;38.33;;;20.70;;
31224;SDS011;17847;31.524;74.366;2023-03-14T16:32:15;36.80;;;21.00;;
31224;SDS011;17847;31.524;74.366;2023-03-14T16:34:57;44.38;;;21.02;;
31224;SDS011;17847;31.524;74.366;2023-03-14T16:37:47;49.10;;;22.08;;
31224;SDS011;17847;31.524;74.366;2023-03-14T16:40:29;39.38;;;18.80;;
31224;SDS011;17847;31.524;74.366;2023-03-14T16:43:19;46.25;;;20.67;;
31224;SDS011;17847;31.524;74.366;2023-03-14T16:46:10;44.53;;;19.40;;
31224;SDS011;17847;31.524;74.366;2023-03-14T16:49:09;43.72;;;19.58;;
31224;SDS011;17847;31.524;74.366;2023-03-14T16:51:44;44.60;;;18.98;;
31224;SDS011;17847;31.524;74.366;2023-03-14T16:54:40;40.90;;;20.92;;
31224;SDS011;17847;31.524;74.366;2023-03-14T16:57:23;46.40;;;21.55;;
31224;SDS011;17847;31.524;74.366;2023-03-14T17:00:13;38.75;;;20.88;;
31224;SDS011;17847;31.524;74.366;2023-03-14T17:02:56;43.35;;;21.30;;
31224;SDS011;17847;31.524;74.366;2023-03-14T17:05:47;43.15;;;20.85;;
31224;SDS011;17847;31.524;74.366;2023-03-14T17:08:33;51.67;;;21.75;;
31224;SDS011;17847;31.524;74.366;2023-03-14T17:11:24;43.85;;;21.48;;
31224;SDS011;17847;31.524;74.366;2023-03-14T17:14:10;52.38;;;22.88;;
31224;SDS011;17847;31.524;74.366;2023-03-14T17:16:59;50.08;;;22.70;;
31224;SDS011;17847;31.524;74.366;2023-03-14T17:19:41;43.15;;;18.45;;
31224;SDS011;17847;31.524;74.366;2023-03-14T17:22:30;52.53;;;20.38;;
31224;SDS011;17847;31.524;74.366;2023-03-14T17:25:12;68.22;;;21.75;;
31224;SDS011;17847;31.524;74.366;2023-03-14T17:28:01;75.82;;;25.35;;
31224;SDS011;17847;31.524;74.366;2023-03-14T17:30:43;71.90;;;22.40;;
31224;SDS011;17847;31.524;74.366;2023-03-14T17:33:33;54.25;;;22.50;;
31224;SDS011;17847;31.524;74.366;2023-03-14T17:36:16;53.83;;;22.45;;
31224;SDS011;17847;31.524;74.366;2023-03-14T17:39:16;56.63;;;23.23;;
31224;SDS011;17847;31.524;74.366;2023-03-14T17:41:58;49.83;;;22.30;;
31224;SDS011;17847;31.524;74.366;2023-03-14T17:44:48;43.20;;;22.38;;
31224;SDS011;17847;31.524;74.366;2023-03-14T17:47:43;63.03;;;21.90;;
31224;SDS011;17847;31.524;74.366;2023-03-14T17:50:25;34.97;;;18.35;;